sensor_id;sensor_type;location;lat;lon;timestamp;pressure;altitude;pressure_sealevel;temperature;humidity
77299;BME280;66361;52.034;20.656;2023-07-09T00:03:11;100215.44;;;13.64;92.07
77299;BME280;66361;52.034;20.656;2023-07-09T00:07:19;100205.53;;;13.55;90.51
77299;BME280;66361;52.034;20.656;2023-07-09T00:11:24;100205.97;;;13.49;90.35
77299;BME280;66361;52.034;20.656;2023-07-09T00:15:27;100204.88;;;13.40;90.98
77299;BME280;66361;52.034;20.656;2023-07-09T04:34:53;100293.31;;;22.59;58.11
77299;BME280;66361;52.034;20.656;2023-07-09T04:38:56;100293.31;;;24.00;51.30
77299;BME280;66361;52.034;20.656;2023-07-09T04:42:59;100289.41;;;25.00;49.68
77299;BME280;66361;52.034;20.656;2023-07-09T04:47:03;100296.06;;;25.77;46.88
77299;BME280;66361;52.034;20.656;2023-07-09T04:51:07;100296.19;;;25.84;44.66
77299;BME280;66361;52.034;20.656;2023-07-09T04:55:10;100304.38;;;27.10;43.02
77299;BME280;66361;52.034;20.656;2023-07-09T04:59:13;100310.94;;;28.17;40.35
77299;BME280;66361;52.034;20.656;2023-07-09T05:03:17;100309.72;;;28.78;38.24
77299;BME280;66361;52.034;20.656;2023-07-09T05:07:22;100309.34;;;29.65;37.55
77299;BME280;66361;52.034;20.656;2023-07-09T05:11:26;100308.69;;;28.40;37.21
77299;BME280;66361;52.034;20.656;2023-07-09T05:15:29;100308.69;;;29.83;36.38
77299;BME280;66361;52.034;20.656;2023-07-09T05:19:32;100314.00;;;29.52;36.41
77299;BME280;66361;52.034;20.656;2023-07-09T05:23:37;100314.47;;;30.24;34.13
77299;BME280;66361;52.034;20.656;2023-07-09T05:27:40;100323.75;;;31.22;33.79
77299;BME280;66361;52.034;20.656;2023-07-09T05:31:45;100320.19;;;31.22;33.37
77299;BME280;66361;52.034;20.656;2023-07-09T05:35:49;100327.09;;;31.25;31.96
77299;BME280;66361;52.034;20.656;2023-07-09T05:39:53;100331.66;;;31.67;32.37
77299;BME280;66361;52.034;20.656;2023-07-09T05:43:56;100323.84;;;30.04;33.32
77299;BME280;66361;52.034;20.656;2023-07-09T05:48:00;100319.22;;;31.35;32.75
77299;BME280;66361;52.034;20.656;2023-07-09T05:52:06;100331.72;;;31.97;32.40
77299;BME280;66361;52.034;20.656;2023-07-09T05:56:10;100341.25;;;31.88;30.28
77299;BME280;66361;52.034;20.656;2023-07-09T06:00:14;100334.63;;;33.20;29.55
77299;BME280;66361;52.034;20.656;2023-07-09T06:04:17;100338.97;;;31.30;32.53
77299;BME280;66361;52.034;20.656;2023-07-09T06:08:24;100340.53;;;33.28;29.84
77299;BME280;66361;52.034;20.656;2023-07-09T06:12:29;100337.44;;;32.37;27.98
77299;BME280;66361;52.034;20.656;2023-07-09T06:16:32;100333.88;;;32.78;28.52
77299;BME280;66361;52.034;20.656;2023-07-09T06:20:35;100336.19;;;33.16;29.91
77299;BME280;66361;52.034;20.656;2023-07-09T06:24:39;100346.00;;;35.48;26.07
77299;BME280;66361;52.034;20.656;2023-07-09T06:28:43;100336.81;;;34.54;25.77
77299;BME280;66361;52.034;20.656;2023-07-09T06:32:46;100347.78;;;35.37;26.03
77299;BME280;66361;52.034;20.656;2023-07-09T06:36:49;100359.50;;;35.93;22.91
77299;BME280;66361;52.034;20.656;2023-07-09T06:40:52;100350.66;;;34.02;25.45
77299;BME280;66361;52.034;20.656;2023-07-09T06:44:57;100361.06;;;32.73;26.87
77299;BME280;66361;52.034;20.656;2023-07-09T06:49:00;100361.72;;;34.52;24.52
77299;BME280;66361;52.034;20.656;2023-07-09T06:53:03;100372.91;;;34.06;26.10
77299;BME280;66361;52.034;20.656;2023-07-09T06:57:06;100380.94;;;35.53;24.68
77299;BME280;66361;52.034;20.656;2023-07-09T07:01:11;100374.91;;;35.34;24.92
77299;BME280;66361;52.034;20.656;2023-07-09T07:05:17;100369.00;;;34.02;24.71
77299;BME280;66361;52.034;20.656;2023-07-09T07:09:20;100365.44;;;35.08;23.75
77299;BME280;66361;52.034;20.656;2023-07-09T07:13:23;100364.66;;;35.13;25.32
77299;BME280;66361;52.034;20.656;2023-07-09T07:17:31;100373.41;;;35.10;24.35
77299;BME280;66361;52.034;20.656;2023-07-09T07:21:35;100383.16;;;36.16;22.69
77299;BME280;66361;52.034;20.656;2023-07-09T07:25:38;100374.97;;;35.61;22.20
77299;BME280;66361;52.034;20.656;2023-07-09T07:29:43;100369.94;;;34.36;26.92
77299;BME280;66361;52.034;20.656;2023-07-09T07:33:48;100374.53;;;35.85;23.15
77299;BME280;66361;52.034;20.656;2023-07-09T07:37:51;100362.69;;;35.08;24.02
77299;BME280;66361;52.034;20.656;2023-07-09T07:41:54;100369.25;;;35.79;22.11
77299;BME280;66361;52.034;20.656;2023-07-09T07:45:57;100371.16;;;35.23;23.91
77299;BME280;66361;52.034;20.656;2023-07-09T07:50:02;100368.63;;;34.67;25.30
77299;BME280;66361;52.034;20.656;2023-07-09T07:54:05;100369.72;;;35.76;23.09
77299;BME280;66361;52.034;20.656;2023-07-09T07:58:11;100368.31;;;36.44;22.80
77299;BME280;66361;52.034;20.656;2023-07-09T08:02:15;100365.00;;;37.42;22.25
77299;BME280;66361;52.034;20.656;2023-07-09T08:06:20;100357.63;;;36.74;21.55
77299;BME280;66361;52.034;20.656;2023-07-09T08:10:22;100355.59;;;36.96;22.22
77299;BME280;66361;52.034;20.656;2023-07-09T08:14:25;100363.25;;;37.21;22.92
77299;BME280;66361;52.034;20.656;2023-07-09T08:18:29;100366.91;;;37.00;22.57
77299;BME280;66361;52.034;20.656;2023-07-09T08:22:34;100362.25;;;35.93;23.27
77299;BME280;66361;52.034;20.656;2023-07-09T08:26:40;100368.53;;;35.50;22.43
77299;BME280;66361;52.034;20.656;2023-07-09T08:30:44;100360.06;;;36.70;22.15
77299;BME280;66361;52.034;20.656;2023-07-09T08:34:47;100364.22;;;36.46;22.65
77299;BME280;66361;52.034;20.656;2023-07-09T08:39:12;100360.34;;;37.43;21.36
77299;BME280;66361;52.034;20.656;2023-07-09T08:43:31;100363.91;;;37.43;22.04
77299;BME280;66361;52.034;20.656;2023-07-09T08:47:43;100356.22;;;36.71;21.82
77299;BME280;66361;52.034;20.656;2023-07-09T08:51:49;100352.97;;;38.15;19.89
77299;BME280;66361;52.034;20.656;2023-07-09T08:55:55;100368.63;;;35.99;22.72
77299;BME280;66361;52.034;20.656;2023-07-09T09:00:02;100347.59;;;37.31;20.28
77299;BME280;66361;52.034;20.656;2023-07-09T09:04:15;100356.47;;;38.01;19.07
77299;BME280;66361;52.034;20.656;2023-07-09T09:08:30;100354.13;;;36.83;19.86
77299;BME280;66361;52.034;20.656;2023-07-09T09:12:40;100350.81;;;35.19;21.14
77299;BME280;66361;52.034;20.656;2023-07-09T09:16:46;100359.69;;;35.65;21.33
77299;BME280;66361;52.034;20.656;2023-07-09T09:20:54;100344.59;;;36.11;20.02
77299;BME280;66361;52.034;20.656;2023-07-09T09:25:09;100348.59;;;34.10;21.31
77299;BME280;66361;52.034;20.656;2023-07-09T09:29:19;100335.97;;;36.51;19.73
77299;BME280;66361;52.034;20.656;2023-07-09T09:33:23;100347.53;;;36.26;20.03
77299;BME280;66361;52.034;20.656;2023-07-09T09:37:28;100335.81;;;34.43;18.82
77299;BME280;66361;52.034;20.656;2023-07-09T09:41:35;100352.47;;;33.85;21.75
77299;BME280;66361;52.034;20.656;2023-07-09T09:45:41;100344.88;;;34.61;21.29
77299;BME280;66361;52.034;20.656;2023-07-09T09:49:44;100338.75;;;33.69;21.74
77299;BME280;66361;52.034;20.656;2023-07-09T09:53:49;100331.66;;;34.41;22.19
77299;BME280;66361;52.034;20.656;2023-07-09T09:57:54;100335.22;;;33.22;21.47
77299;BME280;66361;52.034;20.656;2023-07-09T10:02:01;100336.97;;;32.81;21.73
77299;BME280;66361;52.034;20.656;2023-07-09T10:06:14;100339.25;;;31.47;23.76
77299;BME280;66361;52.034;20.656;2023-07-09T10:10:23;100331.00;;;32.73;25.25
77299;BME280;66361;52.034;20.656;2023-07-09T10:14:38;100336.38;;;32.91;23.06
77299;BME280;66361;52.034;20.656;2023-07-09T10:18:52;100331.28;;;32.94;22.50
77299;BME280;66361;52.034;20.656;2023-07-09T10:23:03;100325.81;;;32.83;22.77
77299;BME280;66361;52.034;20.656;2023-07-09T10:27:18;100343.31;;;32.10;24.26
77299;BME280;66361;52.034;20.656;2023-07-09T10:31:34;100331.59;;;32.63;22.76
77299;BME280;66361;52.034;20.656;2023-07-09T10:35:49;100330.63;;;32.57;22.95
77299;BME280;66361;52.034;20.656;2023-07-09T10:39:57;100334.38;;;32.45;23.16
77299;BME280;66361;52.034;20.656;2023-07-09T10:44:05;100318.72;;;32.52;25.41
77299;BME280;66361;52.034;20.656;2023-07-09T10:48:15;100320.66;;;31.74;24.72
77299;BME280;66361;52.034;20.656;2023-07-09T10:52:25;100323.91;;;31.82;22.18
77299;BME280;66361;52.034;20.656;2023-07-09T10:56:31;100317.09;;;32.21;24.12
77299;BME280;66361;52.034;20.656;2023-07-09T11:00:38;100315.34;;;31.79;24.08
77299;BME280;66361;52.034;20.656;2023-07-09T11:04:47;100321.53;;;31.86;22.63
77299;BME280;66361;52.034;20.656;2023-07-09T11:08:54;100317.53;;;31.15;25.15
77299;BME280;66361;52.034;20.656;2023-07-09T11:12:59;100302.31;;;31.26;24.12
77299;BME280;66361;52.034;20.656;2023-07-09T11:17:05;100314.41;;;32.33;24.11
77299;BME280;66361;52.034;20.656;2023-07-09T11:21:16;100318.22;;;32.02;23.07
77299;BME280;66361;52.034;20.656;2023-07-09T11:25:39;100314.41;;;31.55;24.95
77299;BME280;66361;52.034;20.656;2023-07-09T11:29:47;100311.19;;;31.21;23.23
77299;BME280;66361;52.034;20.656;2023-07-09T11:33:59;100309.22;;;31.65;25.15
77299;BME280;66361;52.034;20.656;2023-07-09T11:38:11;100297.03;;;30.88;25.07
77299;BME280;66361;52.034;20.656;2023-07-09T11:42:28;100307.09;;;31.31;23.50
77299;BME280;66361;52.034;20.656;2023-07-09T11:46:32;100294.94;;;30.65;25.17
77299;BME280;66361;52.034;20.656;2023-07-09T11:50:41;100306.81;;;31.57;25.27
77299;BME280;66361;52.034;20.656;2023-07-09T11:54:47;100308.38;;;31.28;25.10
77299;BME280;66361;52.034;20.656;2023-07-09T11:58:55;100295.50;;;31.35;24.30
77299;BME280;66361;52.034;20.656;2023-07-09T12:03:00;100298.56;;;30.77;24.29
77299;BME280;66361;52.034;20.656;2023-07-09T12:07:03;100282.84;;;30.55;24.58
77299;BME280;66361;52.034;20.656;2023-07-09T12:11:18;100286.75;;;30.65;23.19
77299;BME280;66361;52.034;20.656;2023-07-09T12:15:25;100288.19;;;30.93;25.07
77299;BME280;66361;52.034;20.656;2023-07-09T12:19:30;100284.69;;;30.86;24.78
77299;BME280;66361;52.034;20.656;2023-07-09T12:23:33;100279.59;;;30.46;24.71
77299;BME280;66361;52.034;20.656;2023-07-09T12:27:37;100275.25;;;30.39;23.99
77299;BME280;66361;52.034;20.656;2023-07-09T12:31:42;100277.75;;;30.90;25.38
77299;BME280;66361;52.034;20.656;2023-07-09T12:35:46;100272.97;;;30.36;24.83
77299;BME280;66361;52.034;20.656;2023-07-09T12:39:50;100273.03;;;30.54;25.79
77299;BME280;66361;52.034;20.656;2023-07-09T12:43:55;100269.72;;;30.20;25.19
77299;BME280;66361;52.034;20.656;2023-07-09T12:47:59;100268.81;;;30.26;25.28
77299;BME280;66361;52.034;20.656;2023-07-09T12:52:10;100267.22;;;29.81;25.26
77299;BME280;66361;52.034;20.656;2023-07-09T12:56:16;100270.31;;;30.54;26.24
77299;BME280;66361;52.034;20.656;2023-07-09T13:00:20;100266.28;;;30.56;26.19
77299;BME280;66361;52.034;20.656;2023-07-09T13:04:30;100265.75;;;29.85;24.36
77299;BME280;66361;52.034;20.656;2023-07-09T13:08:41;100268.78;;;29.57;25.02
77299;BME280;66361;52.034;20.656;2023-07-09T13:12:46;100261.59;;;29.76;26.73
77299;BME280;66361;52.034;20.656;2023-07-09T13:17:03;100260.38;;;29.01;25.04
77299;BME280;66361;52.034;20.656;2023-07-09T13:21:16;100268.34;;;28.90;26.69
77299;BME280;66361;52.034;20.656;2023-07-09T13:25:19;100263.94;;;28.95;27.05
77299;BME280;66361;52.034;20.656;2023-07-09T13:29:42;100264.81;;;28.76;27.74
77299;BME280;66361;52.034;20.656;2023-07-09T13:34:17;100262.06;;;28.82;28.46
77299;BME280;66361;52.034;20.656;2023-07-09T13:38:23;100260.66;;;28.41;27.59
77299;BME280;66361;52.034;20.656;2023-07-09T13:42:27;100264.41;;;28.66;28.25
77299;BME280;66361;52.034;20.656;2023-07-09T13:46:30;100250.41;;;28.56;27.32
77299;BME280;66361;52.034;20.656;2023-07-09T13:50:33;100248.97;;;28.66;28.20
77299;BME280;66361;52.034;20.656;2023-07-09T13:54:37;100253.09;;;28.82;26.94
77299;BME280;66361;52.034;20.656;2023-07-09T13:58:41;100238.72;;;28.49;26.64
77299;BME280;66361;52.034;20.656;2023-07-09T14:02:45;100257.09;;;28.66;28.50
77299;BME280;66361;52.034;20.656;2023-07-09T14:06:49;100244.97;;;28.75;27.73
77299;BME280;66361;52.034;20.656;2023-07-09T14:10:55;100253.75;;;28.64;27.28
77299;BME280;66361;52.034;20.656;2023-07-09T14:15:00;100251.44;;;28.28;28.57
77299;BME280;66361;52.034;20.656;2023-07-09T14:19:09;100245.81;;;28.43;28.13
77299;BME280;66361;52.034;20.656;2023-07-09T14:23:17;100237.25;;;28.33;27.81
77299;BME280;66361;52.034;20.656;2023-07-09T14:27:22;100239.13;;;28.32;27.35
77299;BME280;66361;52.034;20.656;2023-07-09T14:31:27;100241.44;;;28.29;27.02
77299;BME280;66361;52.034;20.656;2023-07-09T14:35:33;100248.50;;;28.23;27.51
77299;BME280;66361;52.034;20.656;2023-07-09T14:39:38;100247.47;;;28.37;27.86
77299;BME280;66361;52.034;20.656;2023-07-09T14:43:42;100245.63;;;28.51;27.81
77299;BME280;66361;52.034;20.656;2023-07-09T14:47:46;100237.47;;;28.58;26.82
77299;BME280;66361;52.034;20.656;2023-07-09T14:51:50;100238.47;;;28.30;27.28
77299;BME280;66361;52.034;20.656;2023-07-09T14:55:54;100236.38;;;28.26;27.29
77299;BME280;66361;52.034;20.656;2023-07-09T14:59:59;100231.59;;;27.95;27.94
77299;BME280;66361;52.034;20.656;2023-07-09T15:04:25;100235.34;;;28.07;28.27
77299;BME280;66361;52.034;20.656;2023-07-09T15:08:29;100225.75;;;27.92;27.84
77299;BME280;66361;52.034;20.656;2023-07-09T15:12:33;100226.16;;;28.02;28.71
77299;BME280;66361;52.034;20.656;2023-07-09T15:16:38;100216.34;;;27.94;28.83
77299;BME280;66361;52.034;20.656;2023-07-09T15:20:44;100215.50;;;28.00;28.64
77299;BME280;66361;52.034;20.656;2023-07-09T15:24:50;100209.66;;;27.90;28.79
77299;BME280;66361;52.034;20.656;2023-07-09T15:28:53;100213.63;;;27.87;28.49
77299;BME280;66361;52.034;20.656;2023-07-09T15:32:59;100202.69;;;27.68;28.08
77299;BME280;66361;52.034;20.656;2023-07-09T15:37:12;100208.75;;;27.70;28.75
77299;BME280;66361;52.034;20.656;2023-07-09T15:41:16;100206.84;;;27.57;28.67
77299;BME280;66361;52.034;20.656;2023-07-09T15:45:20;100207.28;;;27.61;29.17
77299;BME280;66361;52.034;20.656;2023-07-09T15:49:25;100203.91;;;27.59;29.29
77299;BME280;66361;52.034;20.656;2023-07-09T15:53:29;100204.25;;;27.36;29.07
77299;BME280;66361;52.034;20.656;2023-07-09T15:57:32;100197.78;;;27.24;29.60
77299;BME280;66361;52.034;20.656;2023-07-09T16:01:43;100202.41;;;27.02;29.39
77299;BME280;66361;52.034;20.656;2023-07-09T16:05:47;100202.63;;;27.01;29.73
77299;BME280;66361;52.034;20.656;2023-07-09T16:09:53;100204.09;;;27.03;30.32
77299;BME280;66361;52.034;20.656;2023-07-09T16:13:56;100207.22;;;27.00;29.98
77299;BME280;66361;52.034;20.656;2023-07-09T16:17:59;100201.19;;;26.98;29.99
77299;BME280;66361;52.034;20.656;2023-07-09T16:22:06;100196.75;;;26.90;30.05
77299;BME280;66361;52.034;20.656;2023-07-09T16:26:12;100198.81;;;26.88;31.15
77299;BME280;66361;52.034;20.656;2023-07-09T16:30:18;100197.47;;;26.71;30.37
77299;BME280;66361;52.034;20.656;2023-07-09T16:34:21;100184.94;;;26.64;31.32
77299;BME280;66361;52.034;20.656;2023-07-09T16:38:27;100177.41;;;26.59;31.06
77299;BME280;66361;52.034;20.656;2023-07-09T16:42:30;100178.03;;;26.61;30.86
77299;BME280;66361;52.034;20.656;2023-07-09T16:46:33;100193.94;;;26.49;31.24
77299;BME280;66361;52.034;20.656;2023-07-09T16:50:37;100180.34;;;26.36;31.77
77299;BME280;66361;52.034;20.656;2023-07-09T16:54:42;100193.81;;;26.30;31.65
77299;BME280;66361;52.034;20.656;2023-07-09T16:58:46;100187.44;;;26.16;31.75
77299;BME280;66361;52.034;20.656;2023-07-09T17:02:50;100184.22;;;25.99;31.87
77299;BME280;66361;52.034;20.656;2023-07-09T17:06:54;100181.06;;;25.96;32.02
77299;BME280;66361;52.034;20.656;2023-07-09T17:11:01;100186.88;;;25.78;32.78
77299;BME280;66361;52.034;20.656;2023-07-09T17:15:20;100186.31;;;25.62;33.01
77299;BME280;66361;52.034;20.656;2023-07-09T17:19:24;100184.50;;;25.47;34.27
77299;BME280;66361;52.034;20.656;2023-07-09T17:23:27;100186.34;;;25.47;34.47
77299;BME280;66361;52.034;20.656;2023-07-09T17:27:33;100187.66;;;25.51;34.09
77299;BME280;66361;52.034;20.656;2023-07-09T17:31:36;100188.41;;;25.45;33.92
77299;BME280;66361;52.034;20.656;2023-07-09T17:35:41;100184.09;;;25.29;34.36
77299;BME280;66361;52.034;20.656;2023-07-09T17:39:44;100190.06;;;25.10;34.47
77299;BME280;66361;52.034;20.656;2023-07-09T17:43:49;100200.03;;;24.80;38.44
77299;BME280;66361;52.034;20.656;2023-07-09T17:47:52;100194.06;;;24.70;36.39
77299;BME280;66361;52.034;20.656;2023-07-09T17:51:57;100203.84;;;24.56;35.57
77299;BME280;66361;52.034;20.656;2023-07-09T17:56:00;100200.25;;;24.41;36.09
77299;BME280;66361;52.034;20.656;2023-07-09T18:00:14;100203.09;;;24.25;38.51
77299;BME280;66361;52.034;20.656;2023-07-09T18:04:20;100198.78;;;24.01;39.42
77299;BME280;66361;52.034;20.656;2023-07-09T18:08:32;100192.59;;;23.70;38.71
77299;BME280;66361;52.034;20.656;2023-07-09T18:12:35;100205.13;;;23.55;40.81
77299;BME280;66361;52.034;20.656;2023-07-09T18:16:40;100196.78;;;23.19;41.65
77299;BME280;66361;52.034;20.656;2023-07-09T18:20:44;100199.75;;;22.85;40.46
77299;BME280;66361;52.034;20.656;2023-07-09T18:24:48;100198.81;;;22.54;42.26
77299;BME280;66361;52.034;20.656;2023-07-09T18:28:51;100199.03;;;22.28;42.49
77299;BME280;66361;52.034;20.656;2023-07-09T18:32:58;100192.47;;;21.98;43.21
77299;BME280;66361;52.034;20.656;2023-07-09T18:37:02;100200.50;;;21.74;45.17
77299;BME280;66361;52.034;20.656;2023-07-09T18:41:11;100205.69;;;21.51;45.37
77299;BME280;66361;52.034;20.656;2023-07-09T18:45:18;100202.41;;;21.23;47.07
77299;BME280;66361;52.034;20.656;2023-07-09T18:49:23;100207.47;;;20.93;49.58
77299;BME280;66361;52.034;20.656;2023-07-09T18:53:27;100211.19;;;20.66;48.71
77299;BME280;66361;52.034;20.656;2023-07-09T18:57:32;100217.47;;;20.49;50.54
77299;BME280;66361;52.034;20.656;2023-07-09T19:01:36;100212.75;;;20.25;51.20
77299;BME280;66361;52.034;20.656;2023-07-09T19:05:43;100212.00;;;19.97;53.28
77299;BME280;66361;52.034;20.656;2023-07-09T19:09:47;100215.78;;;19.69;52.85
77299;BME280;66361;52.034;20.656;2023-07-09T19:13:52;100214.75;;;19.52;53.43
77299;BME280;66361;52.034;20.656;2023-07-09T19:17:55;100211.19;;;19.34;54.26
77299;BME280;66361;52.034;20.656;2023-07-09T19:22:00;100203.28;;;19.15;55.58
77299;BME280;66361;52.034;20.656;2023-07-09T19:26:03;100201.97;;;19.01;55.74
77299;BME280;66361;52.034;20.656;2023-07-09T19:30:08;100210.78;;;18.84;56.57
77299;BME280;66361;52.034;20.656;2023-07-09T19:34:15;100206.06;;;18.68;56.99
77299;BME280;66361;52.034;20.656;2023-07-09T19:38:20;100220.97;;;18.52;58.50
77299;BME280;66361;52.034;20.656;2023-07-09T19:42:24;100219.91;;;18.35;59.37
77299;BME280;66361;52.034;20.656;2023-07-09T19:46:28;100217.81;;;18.19;60.21
77299;BME280;66361;52.034;20.656;2023-07-09T19:50:33;100217.25;;;18.06;60.89
77299;BME280;66361;52.034;20.656;2023-07-09T19:54:38;100223.91;;;17.92;65.82
77299;BME280;66361;52.034;20.656;2023-07-09T19:58:42;100214.91;;;17.74;62.93
77299;BME280;66361;52.034;20.656;2023-07-09T20:02:46;100217.28;;;17.58;63.39
77299;BME280;66361;52.034;20.656;2023-07-09T20:06:49;100215.09;;;17.42;66.45
77299;BME280;66361;52.034;20.656;2023-07-09T20:10:55;100213.69;;;17.29;66.82
77299;BME280;66361;52.034;20.656;2023-07-09T20:15:00;100225.44;;;17.17;66.85
77299;BME280;66361;52.034;20.656;2023-07-09T20:19:09;100225.00;;;17.02;67.54
77299;BME280;66361;52.034;20.656;2023-07-09T20:23:13;100223.28;;;16.91;71.01
77299;BME280;66361;52.034;20.656;2023-07-09T20:27:18;100226.03;;;16.80;70.31
77299;BME280;66361;52.034;20.656;2023-07-09T20:31:23;100234.13;;;16.69;72.57
77299;BME280;66361;52.034;20.656;2023-07-09T20:35:26;100236.16;;;16.56;72.27
77299;BME280;66361;52.034;20.656;2023-07-09T20:39:29;100238.72;;;16.46;76.22
77299;BME280;66361;52.034;20.656;2023-07-09T20:43:38;100243.16;;;16.36;76.46
77299;BME280;66361;52.034;20.656;2023-07-09T20:47:42;100248.78;;;16.22;76.60
77299;BME280;66361;52.034;20.656;2023-07-09T20:51:45;100253.38;;;16.11;80.50
77299;BME280;66361;52.034;20.656;2023-07-09T20:55:56;100244.97;;;15.94;78.43
77299;BME280;66361;52.034;20.656;2023-07-09T21:00:01;100246.25;;;15.79;79.11
77299;BME280;66361;52.034;20.656;2023-07-09T21:04:10;100251.47;;;15.70;77.20
77299;BME280;66361;52.034;20.656;2023-07-09T21:08:15;100253.06;;;15.61;81.56
77299;BME280;66361;52.034;20.656;2023-07-09T21:12:19;100246.94;;;15.49;78.30
77299;BME280;66361;52.034;20.656;2023-07-09T21:16:26;100253.38;;;15.47;79.88
77299;BME280;66361;52.034;20.656;2023-07-09T21:20:29;100244.75;;;15.32;79.70
77299;BME280;66361;52.034;20.656;2023-07-09T21:24:36;100246.47;;;15.22;84.38
77299;BME280;66361;52.034;20.656;2023-07-09T21:28:39;100250.50;;;15.17;81.45
77299;BME280;66361;52.034;20.656;2023-07-09T21:32:44;100255.31;;;15.12;79.77
77299;BME280;66361;52.034;20.656;2023-07-09T21:36:48;100259.78;;;15.00;82.06
77299;BME280;66361;52.034;20.656;2023-07-09T21:40:53;100260.50;;;14.91;80.89
77299;BME280;66361;52.034;20.656;2023-07-09T21:44:58;100266.66;;;14.80;82.80
77299;BME280;66361;52.034;20.656;2023-07-09T21:49:04;100272.47;;;14.74;81.72
77299;BME280;66361;52.034;20.656;2023-07-09T21:53:13;100268.47;;;14.69;83.76
77299;BME280;66361;52.034;20.656;2023-07-09T21:57:17;100271.00;;;14.59;83.71
77299;BME280;66361;52.034;20.656;2023-07-09T22:01:21;100271.34;;;14.54;82.70
77299;BME280;66361;52.034;20.656;2023-07-09T22:05:27;100268.56;;;14.45;84.10
77299;BME280;66361;52.034;20.656;2023-07-09T22:09:31;100272.44;;;14.41;84.21
77299;BME280;66361;52.034;20.656;2023-07-09T22:13:34;100286.81;;;14.38;87.00
77299;BME280;66361;52.034;20.656;2023-07-09T22:17:37;100273.97;;;14.32;86.42
77299;BME280;66361;52.034;20.656;2023-07-09T22:21:43;100274.91;;;14.20;85.23
77299;BME280;66361;52.034;20.656;2023-07-09T22:25:47;100279.97;;;14.12;84.62
77299;BME280;66361;52.034;20.656;2023-07-09T22:29:52;100269.66;;;14.07;84.38
77299;BME280;66361;52.034;20.656;2023-07-09T22:33:56;100283.16;;;14.04;86.24
77299;BME280;66361;52.034;20.656;2023-07-09T22:38:01;100274.56;;;14.01;87.66
77299;BME280;66361;52.034;20.656;2023-07-09T22:42:04;100276.34;;;13.89;85.00
77299;BME280;66361;52.034;20.656;2023-07-09T22:46:12;100277.53;;;13.85;85.79
77299;BME280;66361;52.034;20.656;2023-07-09T22:50:19;100270.84;;;13.80;85.88
77299;BME280;66361;52.034;20.656;2023-07-09T22:54:25;100280.75;;;13.78;88.76
77299;BME280;66361;52.034;20.656;2023-07-09T22:58:28;100278.28;;;13.75;89.10
77299;BME280;66361;52.034;20.656;2023-07-09T23:02:31;100291.69;;;13.73;90.45
77299;BME280;66361;52.034;20.656;2023-07-09T23:06:35;100301.16;;;13.65;93.58
77299;BME280;66361;52.034;20.656;2023-07-09T23:10:43;100296.53;;;13.55;92.46
77299;BME280;66361;52.034;20.656;2023-07-09T23:14:45;100281.84;;;13.39;91.82
77299;BME280;66361;52.034;20.656;2023-07-09T23:18:49;100272.13;;;13.27;92.15
77299;BME280;66361;52.034;20.656;2023-07-09T23:22:52;100280.28;;;13.24;93.38
77299;BME280;66361;52.034;20.656;2023-07-09T23:26:57;100285.81;;;13.21;94.90
77299;BME280;66361;52.034;20.656;2023-07-09T23:31:02;100274.69;;;13.16;92.27
77299;BME280;66361;52.034;20.656;2023-07-09T23:35:12;100278.63;;;13.10;92.79
77299;BME280;66361;52.034;20.656;2023-07-09T23:39:15;100273.75;;;13.04;93.91
77299;BME280;66361;52.034;20.656;2023-07-09T23:43:20;100270.59;;;12.99;94.48
77299;BME280;66361;52.034;20.656;2023-07-09T23:47:23;100265.09;;;12.89;94.37
77299;BME280;66361;52.034;20.656;2023-07-09T23:51:27;100273.25;;;12.86;97.63
77299;BME280;66361;52.034;20.656;2023-07-09T23:55:30;100270.84;;;12.83;96.71
77299;BME280;66361;52.034;20.656;2023-07-09T23:59:35;100264.38;;;12.75;97.37
